createdAt,value
2022-10-25T00:00:24.313Z,99523.47
2022-10-25T00:02:53.490Z,99518.19
2022-10-25T00:05:21.350Z,99509.59
2022-10-25T00:07:49.207Z,99521.88
2022-10-25T00:10:18.324Z,99509.03
2022-10-25T00:12:51.021Z,99507.44
2022-10-25T00:15:19.049Z,99517.28
2022-10-25T00:17:46.893Z,99493.34
2022-10-25T00:20:16.158Z,99521.41
2022-10-25T00:22:44.062Z,99525.06
2022-10-25T00:25:12.056Z,99521.81
2022-10-25T00:27:39.742Z,99527.06
2022-10-25T00:30:08.699Z,99527.00
2022-10-25T00:32:37.449Z,99515.63
2022-10-25T00:35:05.669Z,99519.78
2022-10-25T00:37:35.060Z,99521.41
2022-10-25T00:40:02.941Z,99510.97
2022-10-25T00:42:30.651Z,99526.56
2022-10-25T00:45:01.595Z,99524.66
2022-10-25T00:47:46.962Z,99532.41
2022-10-25T00:50:23.898Z,99537.88
2022-10-25T00:52:53.722Z,99530.78
2022-10-25T00:55:22.306Z,99526.69
2022-10-25T00:57:52.584Z,99534.94
2022-10-25T01:00:20.292Z,99526.16
2022-10-25T01:02:48.055Z,99535.00
2022-10-25T01:05:16.327Z,99548.84
2022-10-25T01:07:44.187Z,99532.72
2022-10-25T01:10:13.465Z,99536.78
2022-10-25T01:12:41.151Z,99544.47
2022-10-25T01:15:10.042Z,99545.31
2022-10-25T01:17:42.907Z,99523.28
2022-10-25T01:20:42.003Z,99553.25
2022-10-25T01:23:18.175Z,99554.31
2022-10-25T01:26:07.721Z,99552.28
2022-10-25T01:28:38.376Z,99552.41
2022-10-25T01:31:13.563Z,99565.81
2022-10-25T01:33:41.793Z,99554.13
2022-10-25T01:38:47.928Z,99559.44
2022-10-25T01:41:19.511Z,99566.50
2022-10-25T01:43:52.503Z,99568.28
2022-10-25T01:46:23.166Z,99556.00
2022-10-25T01:48:51.962Z,99507.81
2022-10-25T01:51:19.820Z,99561.34
2022-10-25T01:53:48.260Z,99566.56
2022-10-25T01:56:19.323Z,99571.97
2022-10-25T01:58:50.051Z,99538.56
2022-10-25T02:01:23.086Z,99567.03
2022-10-25T02:03:52.287Z,99566.84
2022-10-25T02:06:26.600Z,99559.78
2022-10-25T02:08:58.043Z,99566.75
2022-10-25T02:11:26.429Z,99558.16
2022-10-25T02:14:00.141Z,99560.44
2022-10-25T02:16:30.391Z,99561.38
2022-10-25T02:19:00.156Z,99553.75
2022-10-25T02:21:27.817Z,99571.03
2022-10-25T02:23:55.707Z,99570.19
2022-10-25T02:26:23.400Z,99571.97
2022-10-25T02:28:51.152Z,99569.28
2022-10-25T02:31:20.568Z,99567.59
2022-10-25T02:33:49.651Z,99572.88
2022-10-25T02:36:19.042Z,99574.59
2022-10-25T02:38:46.833Z,99581.56
2022-10-25T02:41:14.467Z,99572.75
2022-10-25T02:43:42.215Z,99570.25
2022-10-25T02:46:10.674Z,99568.47
2022-10-25T02:48:38.648Z,99566.66
2022-10-25T02:51:07.901Z,99577.25
2022-10-25T02:53:35.781Z,99580.69
2022-10-25T02:56:03.839Z,99581.69
2022-10-25T02:58:32.095Z,99573.00
2022-10-25T03:01:00.123Z,99579.91
2022-10-25T03:03:28.135Z,99579.06
2022-10-25T03:05:55.958Z,99582.50
2022-10-25T03:08:25.067Z,99582.66
2022-10-25T03:10:52.955Z,99578.13
2022-10-25T03:13:20.613Z,99587.84
2022-10-25T03:15:48.480Z,99588.88
2022-10-25T03:18:16.216Z,99584.25
2022-10-25T03:20:43.981Z,99585.13
2022-10-25T03:23:11.849Z,99597.50
2022-10-25T03:25:41.008Z,99596.66
2022-10-25T03:28:08.689Z,99580.94
2022-10-25T03:30:36.822Z,99582.66
2022-10-25T03:33:04.637Z,99598.19
2022-10-25T03:35:32.302Z,99491.22
2022-10-25T03:37:59.986Z,99584.22
2022-10-25T03:40:27.846Z,99597.25
2022-10-25T03:42:56.852Z,99597.31
2022-10-25T03:45:24.602Z,99603.53
2022-10-25T03:47:52.250Z,99599.16
2022-10-25T03:50:20.042Z,99601.84
2022-10-25T03:52:47.703Z,99599.50
2022-10-25T03:55:15.342Z,99601.41
2022-10-25T03:57:43.015Z,99608.59
2022-10-25T04:00:13.460Z,99610.56
2022-10-25T04:02:41.213Z,99608.19
2022-10-25T04:05:09.967Z,99613.22
2022-10-25T04:07:37.768Z,99621.16
2022-10-25T04:10:06.511Z,99622.88
2022-10-25T04:12:34.202Z,99622.88
2022-10-25T04:15:01.951Z,99621.16
2022-10-25T04:17:32.028Z,99621.16
2022-10-25T04:19:59.716Z,99621.81
2022-10-25T04:22:27.681Z,99634.19
2022-10-25T04:24:55.549Z,99638.56
2022-10-25T04:27:23.325Z,99637.66
2022-10-25T04:29:51.080Z,99632.31
2022-10-25T04:34:48.902Z,99637.09
2022-10-25T04:37:16.871Z,99639.53
2022-10-25T04:39:44.694Z,99641.34
2022-10-25T04:42:12.344Z,99640.50
2022-10-25T04:44:40.108Z,99641.44
2022-10-25T04:47:07.833Z,99637.03
2022-10-25T04:49:35.603Z,99640.56
2022-10-25T04:52:04.712Z,99646.66
2022-10-25T04:54:32.463Z,99638.78
2022-10-25T04:57:00.490Z,99551.19
2022-10-25T04:59:28.289Z,99475.56
2022-10-25T05:01:56.100Z,99498.59
2022-10-25T05:04:23.877Z,99578.63
2022-10-25T05:06:51.699Z,99557.09
2022-10-25T05:09:20.899Z,99523.00
2022-10-25T05:11:48.783Z,99611.84
2022-10-25T05:14:17.755Z,99574.09
2022-10-25T05:16:46.190Z,99626.31
2022-10-25T05:19:14.030Z,99666.97
2022-10-25T05:21:41.873Z,99584.81
2022-10-25T05:24:09.666Z,99666.47
2022-10-25T05:26:39.135Z,99672.88
2022-10-25T05:29:10.312Z,99756.91
2022-10-25T05:31:38.922Z,99593.25
2022-10-25T05:34:06.829Z,99399.00
2022-10-25T05:36:34.611Z,99603.84
2022-10-25T05:39:02.466Z,99553.13
2022-10-25T05:41:33.258Z,99710.09
2022-10-25T05:44:05.887Z,99775.41
2022-10-25T05:46:33.740Z,99566.84
2022-10-25T05:49:01.990Z,99691.38
2022-10-25T05:51:39.572Z,99726.19
2022-10-25T05:54:08.357Z,99538.25
2022-10-25T05:56:36.283Z,99667.03
2022-10-25T05:59:08.869Z,99707.97
2022-10-25T06:01:37.044Z,99695.66
2022-10-25T06:04:05.424Z,99696.59
2022-10-25T06:06:33.094Z,99702.78
2022-10-25T06:09:01.569Z,99684.69
2022-10-25T06:11:29.694Z,99707.16
2022-10-25T06:13:57.524Z,99714.19
2022-10-25T06:16:26.572Z,99712.53
2022-10-25T06:18:54.756Z,99716.06
2022-10-25T06:21:23.074Z,99718.59
2022-10-25T06:23:51.062Z,99732.72
2022-10-25T06:26:19.765Z,99722.09
2022-10-25T06:28:47.653Z,99730.84
2022-10-25T06:31:16.414Z,99732.41
2022-10-25T06:33:45.764Z,99742.97
2022-10-25T06:36:15.294Z,99749.16
2022-10-25T06:38:43.053Z,99753.72
2022-10-25T06:41:12.869Z,99740.81
2022-10-25T06:43:40.722Z,99751.00
2022-10-25T06:46:08.440Z,99754.47
2022-10-25T06:48:37.361Z,99730.56
2022-10-25T06:51:09.675Z,99771.03
2022-10-25T06:53:37.675Z,99770.88
2022-10-25T06:56:08.088Z,99735.22
2022-10-25T06:58:38.463Z,99752.41
2022-10-25T07:01:07.101Z,99734.44
2022-10-25T07:03:35.790Z,99778.47
2022-10-25T07:06:05.105Z,99791.63
2022-10-25T07:08:42.611Z,99792.34
2022-10-25T07:11:13.633Z,99797.53
2022-10-25T07:13:41.441Z,99797.59
2022-10-25T07:16:09.827Z,99801.00
2022-10-25T07:18:37.908Z,99805.38
2022-10-25T07:21:07.090Z,99789.13
2022-10-25T07:23:41.824Z,99829.91
2022-10-25T07:26:11.145Z,99808.44
2022-10-25T07:28:38.978Z,99803.78
2022-10-25T07:31:06.940Z,99819.03
2022-10-25T07:33:34.854Z,99815.50
2022-10-25T07:36:06.497Z,99815.84
2022-10-25T07:38:38.183Z,99828.59
2022-10-25T07:41:06.234Z,99826.44
2022-10-25T07:43:35.325Z,99815.91
2022-10-25T07:46:02.947Z,99826.97
2022-10-25T07:48:30.637Z,99829.66
2022-10-25T07:50:58.279Z,99824.44
2022-10-25T07:53:25.967Z,99826.16
2022-10-25T07:55:53.889Z,99818.56
2022-10-25T07:58:21.683Z,99829.63
2022-10-25T08:00:50.779Z,99826.91
2022-10-25T08:03:18.976Z,99828.56
2022-10-25T08:05:48.885Z,99838.00
2022-10-25T08:08:17.724Z,99832.78
2022-10-25T08:10:45.460Z,99836.09
2022-10-25T08:13:13.183Z,99832.59
2022-10-25T08:15:41.712Z,99838.56
2022-10-25T08:18:10.761Z,99839.25
2022-10-25T08:21:00.611Z,99842.00
2022-10-25T08:23:26.294Z,99816.81
2022-10-25T08:25:53.979Z,99838.16
2022-10-25T08:28:21.748Z,99841.03
2022-10-25T08:30:49.461Z,99830.72
2022-10-25T08:33:18.602Z,99839.63
2022-10-25T08:35:46.345Z,99839.09
2022-10-25T08:38:14.305Z,99837.59
2022-10-25T08:40:50.361Z,99829.97
2022-10-25T08:43:26.674Z,99841.47
2022-10-25T08:45:56.475Z,99826.22
2022-10-25T08:48:27.527Z,99846.63
2022-10-25T08:50:56.208Z,99847.78
2022-10-25T08:53:25.065Z,99836.00
2022-10-25T08:56:11.677Z,99851.50
2022-10-25T08:58:49.497Z,99847.94
2022-10-25T09:01:18.449Z,99859.78
2022-10-25T09:03:47.914Z,99851.22
2022-10-25T09:06:20.148Z,99861.84
2022-10-25T09:08:55.460Z,99860.19
2022-10-25T09:11:28.868Z,99863.41
2022-10-25T09:13:58.867Z,99873.69
2022-10-25T09:16:30.444Z,99865.72
2022-10-25T09:18:59.558Z,99891.63
2022-10-25T09:21:32.073Z,99858.28
2022-10-25T09:24:01.012Z,99864.56
2022-10-25T09:26:41.051Z,99860.56
2022-10-25T09:29:13.299Z,99862.06
2022-10-25T09:31:42.830Z,99857.91
2022-10-25T09:34:12.014Z,99848.63
2022-10-25T09:36:43.292Z,99862.34
2022-10-25T09:39:16.121Z,99839.03
2022-10-25T09:41:45.246Z,99876.41
2022-10-25T09:44:15.185Z,99875.72
2022-10-25T09:46:44.519Z,99871.50
2022-10-25T09:49:19.711Z,99886.13
2022-10-25T09:51:51.459Z,99881.50
2022-10-25T09:54:23.426Z,99854.47
2022-10-25T09:56:51.698Z,99897.06
2022-10-25T09:59:19.482Z,99894.66
2022-10-25T10:01:48.279Z,99899.28
2022-10-25T10:04:26.242Z,99898.00
2022-10-25T10:06:55.523Z,99909.19
2022-10-25T10:09:23.272Z,99909.38
2022-10-25T10:11:50.941Z,99914.25
2022-10-25T10:14:22.089Z,99907.13
2022-10-25T10:16:50.708Z,99907.28
2022-10-25T10:19:19.405Z,99914.38
2022-10-25T10:21:50.478Z,99895.53
2022-10-25T10:24:19.511Z,99879.84
2022-10-25T10:26:49.113Z,99902.19
2022-10-25T10:29:19.043Z,99910.66
2022-10-25T10:31:49.384Z,99924.19
2022-10-25T10:34:31.022Z,99929.22
2022-10-25T10:37:09.104Z,99918.19
2022-10-25T10:39:36.799Z,99922.72
2022-10-25T10:42:15.612Z,99925.16
2022-10-25T10:44:43.857Z,99915.31
2022-10-25T10:47:12.215Z,99902.78
2022-10-25T10:49:42.181Z,99917.75
2022-10-25T10:52:27.282Z,99882.41
2022-10-25T10:54:55.013Z,99918.28
2022-10-25T10:57:25.605Z,99900.44
2022-10-25T10:59:54.005Z,99919.88
2022-10-25T11:02:30.102Z,99926.06
2022-10-25T11:04:58.164Z,99922.38
2022-10-25T11:07:30.691Z,99916.50
2022-10-25T11:10:19.354Z,99932.44
2022-10-25T11:12:47.053Z,99933.31
2022-10-25T11:15:15.276Z,99933.06
2022-10-25T11:17:44.022Z,99941.59
2022-10-25T11:20:20.263Z,99936.31
2022-10-25T11:22:59.960Z,99929.50
2022-10-25T11:25:34.539Z,99935.56
2022-10-25T11:28:12.943Z,99923.09
2022-10-25T11:30:42.210Z,99936.19
2022-10-25T11:33:21.542Z,99914.91
2022-10-25T11:36:01.774Z,99937.41
2022-10-25T11:38:37.632Z,99928.47
2022-10-25T11:41:07.759Z,99922.75
2022-10-25T11:43:45.448Z,99934.78
2022-10-25T11:46:15.642Z,99922.72
2022-10-25T11:48:57.235Z,99901.16
2022-10-25T11:51:30.005Z,99932.22
2022-10-25T11:54:22.122Z,99922.44
2022-10-25T11:56:56.364Z,99889.78
2022-10-25T11:59:26.211Z,99874.13
2022-10-25T12:02:05.540Z,99863.72
2022-10-25T12:04:52.703Z,99914.13
2022-10-25T12:07:23.600Z,99923.03
2022-10-25T12:09:59.020Z,99865.88
2022-10-25T12:12:33.384Z,99925.44
2022-10-25T12:15:01.257Z,99883.28
2022-10-25T12:17:30.519Z,99859.53
2022-10-25T12:19:58.823Z,99914.53
2022-10-25T12:22:30.188Z,99925.09
2022-10-25T12:25:00.635Z,99916.53
2022-10-25T12:27:28.599Z,99870.69
2022-10-25T12:29:57.788Z,99894.97
2022-10-25T12:32:28.881Z,99920.84
2022-10-25T12:34:56.944Z,99930.13
2022-10-25T12:37:28.038Z,99847.44
2022-10-25T12:39:55.879Z,99921.03
2022-10-25T12:42:25.906Z,99921.63
2022-10-25T12:45:02.319Z,99911.41
2022-10-25T12:47:39.918Z,99910.72
2022-10-25T12:50:29.640Z,99909.69
2022-10-25T12:53:23.197Z,99914.69
2022-10-25T12:55:54.776Z,99894.97
2022-10-25T12:58:34.080Z,99906.34
2022-10-25T13:01:08.310Z,99916.19
2022-10-25T13:03:53.469Z,99905.09
2022-10-25T13:06:29.353Z,99812.88
2022-10-25T13:09:01.024Z,99907.13
2022-10-25T13:11:33.427Z,99905.34
2022-10-25T13:14:02.680Z,99903.88
2022-10-25T13:16:30.978Z,99880.38
2022-10-25T13:19:53.118Z,99898.09
2022-10-25T13:22:35.690Z,99901.91
2022-10-25T13:25:06.918Z,99901.97
2022-10-25T13:27:35.851Z,99900.78
2022-10-25T13:30:27.436Z,99907.91
2022-10-25T13:33:27.633Z,99939.66
2022-10-25T13:36:03.393Z,99904.38
2022-10-25T13:38:35.374Z,99858.72
2022-10-25T13:41:16.654Z,99907.31
2022-10-25T13:43:59.086Z,99901.72
2022-10-25T13:46:31.477Z,99906.03
2022-10-25T13:49:01.093Z,99896.38
2022-10-25T13:51:28.738Z,99907.91
2022-10-25T13:53:56.406Z,99907.97
2022-10-25T13:56:34.737Z,99911.81
2022-10-25T13:59:02.706Z,99910.03
2022-10-25T14:01:56.639Z,99911.69
2022-10-25T14:04:35.001Z,99870.09
2022-10-25T14:07:39.771Z,99910.88
2022-10-25T14:10:08.383Z,99911.91
2022-10-25T14:12:36.109Z,99920.97
2022-10-25T14:15:04.672Z,99912.63
2022-10-25T14:17:35.277Z,99908.31
2022-10-25T14:20:03.357Z,99908.09
2022-10-25T14:22:34.431Z,99906.94
2022-10-25T14:25:03.370Z,99915.41
2022-10-25T14:27:32.043Z,99903.91
2022-10-25T14:30:24.314Z,99908.34
2022-10-25T14:32:55.414Z,99904.59
2022-10-25T14:35:23.411Z,99915.41
2022-10-25T14:37:51.099Z,99912.81
2022-10-25T14:40:23.345Z,99914.47
2022-10-25T14:42:51.344Z,99918.78
2022-10-25T14:45:21.324Z,99911.63
2022-10-25T14:47:49.058Z,99914.75
2022-10-25T14:50:18.304Z,99858.75
2022-10-25T14:52:46.445Z,99832.22
2022-10-25T14:55:19.255Z,99896.13
2022-10-25T14:57:47.122Z,99879.06
2022-10-25T15:00:19.129Z,99864.72
2022-10-25T15:02:47.284Z,99905.59
2022-10-25T15:05:18.025Z,99898.91
2022-10-25T15:07:46.910Z,99874.59
2022-10-25T15:10:37.925Z,99888.66
2022-10-25T15:13:06.674Z,99876.97
2022-10-25T15:15:36.135Z,99882.66
2022-10-25T15:18:03.947Z,99896.81
2022-10-25T15:20:34.424Z,99851.56
2022-10-25T15:23:03.396Z,99872.31
2022-10-25T15:25:32.187Z,99870.94
2022-10-25T15:28:09.863Z,99894.38
2022-10-25T15:30:38.568Z,99877.94
2022-10-25T15:33:07.186Z,99870.38
2022-10-25T15:35:39.847Z,99871.16
2022-10-25T15:38:09.714Z,99873.97
2022-10-25T15:40:38.679Z,99879.53
2022-10-25T15:43:06.366Z,99867.50
2022-10-25T15:45:34.335Z,99853.50
2022-10-25T15:48:02.080Z,99871.72
2022-10-25T15:50:29.986Z,99882.25
2022-10-25T15:52:59.226Z,99873.69
2022-10-25T15:55:27.970Z,99866.88
2022-10-25T15:57:55.995Z,99877.41
2022-10-25T16:00:27.962Z,99886.19
2022-10-25T16:02:56.208Z,99852.09
2022-10-25T16:05:25.640Z,99865.72
2022-10-25T16:07:53.397Z,99880.56
2022-10-25T16:10:23.979Z,99836.97
2022-10-25T16:12:57.138Z,99864.59
2022-10-25T16:15:27.160Z,99875.00
2022-10-25T16:17:55.868Z,99865.72
2022-10-25T16:20:24.393Z,99870.88
2022-10-25T16:22:52.163Z,99869.16
2022-10-25T16:25:21.726Z,99864.94
2022-10-25T16:27:49.363Z,99849.09
2022-10-25T16:30:18.472Z,99879.78
2022-10-25T16:32:46.430Z,99862.63
2022-10-25T16:35:15.798Z,99849.78
2022-10-25T16:37:43.587Z,99868.59
2022-10-25T16:40:14.708Z,99861.09
2022-10-25T16:42:44.114Z,99864.31
2022-10-25T16:45:14.949Z,99876.19
2022-10-25T16:47:42.643Z,99859.81
2022-10-25T16:50:10.366Z,99847.19
2022-10-25T16:52:38.132Z,99857.84
2022-10-25T16:55:06.765Z,99858.19
2022-10-25T16:57:34.615Z,99859.31
2022-10-25T17:00:04.116Z,99860.50
2022-10-25T17:02:32.012Z,99855.44
2022-10-25T17:05:00.414Z,99846.97
2022-10-25T17:07:28.102Z,99853.03
2022-10-25T17:09:56.722Z,99852.66
2022-10-25T17:12:24.478Z,99845.84
2022-10-25T17:14:52.137Z,99854.78
2022-10-25T17:19:54.758Z,99856.94
2022-10-25T17:22:23.680Z,99857.28
2022-10-25T17:24:52.215Z,99835.22
2022-10-25T17:27:20.047Z,99853.31
2022-10-25T17:29:48.005Z,99855.25
2022-10-25T17:32:15.961Z,99858.91
2022-10-25T17:34:45.257Z,99863.28
2022-10-25T17:37:13.072Z,99852.00
2022-10-25T17:39:41.153Z,99862.47
2022-10-25T17:42:09.063Z,99864.25
2022-10-25T17:44:37.161Z,99852.06
2022-10-25T17:47:05.075Z,99851.09
2022-10-25T17:49:34.237Z,99855.50
2022-10-25T17:52:03.624Z,99851.31
2022-10-25T17:54:31.551Z,99854.81
2022-10-25T17:57:01.111Z,99854.94
2022-10-25T17:59:29.003Z,99858.66
2022-10-25T18:01:56.846Z,99847.38
2022-10-25T18:04:24.648Z,99853.66
2022-10-25T18:06:52.527Z,99845.91
2022-10-25T18:09:21.694Z,99850.50
2022-10-25T18:11:49.576Z,99842.88
2022-10-25T18:14:17.323Z,99844.75
2022-10-25T18:16:45.235Z,99854.63
2022-10-25T18:19:14.720Z,99858.31
2022-10-25T18:21:42.726Z,99846.22
2022-10-25T18:24:13.045Z,99854.31
2022-10-25T18:26:42.760Z,99858.81
2022-10-25T18:29:11.083Z,99743.59
2022-10-25T18:31:38.968Z,99850.22
2022-10-25T18:34:06.989Z,99848.56
2022-10-25T18:36:34.857Z,99847.72
2022-10-25T18:39:03.029Z,99837.47
2022-10-25T18:41:31.749Z,99853.16
2022-10-25T18:44:02.426Z,99846.28
2022-10-25T18:46:31.896Z,99812.91
2022-10-25T18:48:59.846Z,99852.72
2022-10-25T18:51:28.837Z,99832.81
2022-10-25T18:53:56.764Z,99847.75
2022-10-25T18:56:24.974Z,99806.56
2022-10-25T18:58:53.930Z,99840.97
2022-10-25T19:01:24.490Z,99832.53
2022-10-25T19:03:52.845Z,99848.31
2022-10-25T19:06:20.965Z,99846.63
2022-10-25T19:08:49.533Z,99844.16
2022-10-25T19:11:17.577Z,99845.16
2022-10-25T19:13:48.938Z,99846.97
2022-10-25T19:16:19.253Z,99854.94
2022-10-25T19:18:48.571Z,99809.81
2022-10-25T19:21:18.422Z,99809.03
2022-10-25T19:23:46.623Z,99737.25
2022-10-25T19:26:15.799Z,99814.50
2022-10-25T19:28:43.763Z,99837.75
2022-10-25T19:31:13.123Z,99823.84
2022-10-25T19:33:41.235Z,99823.13
2022-10-25T19:36:11.431Z,99823.06
2022-10-25T19:38:39.468Z,99826.63
2022-10-25T19:41:08.160Z,99796.47
2022-10-25T19:43:36.185Z,99825.81
2022-10-25T19:46:05.686Z,99831.16
2022-10-25T19:48:33.862Z,99797.28
2022-10-25T19:51:05.228Z,99818.88
2022-10-25T19:53:34.517Z,99821.50
2022-10-25T19:56:02.534Z,99824.09
2022-10-25T19:58:30.589Z,99818.75
2022-10-25T20:01:06.369Z,99818.75
2022-10-25T20:03:34.105Z,99816.13
2022-10-25T20:06:03.883Z,99817.94
2022-10-25T20:08:34.415Z,99822.31
2022-10-25T20:11:02.393Z,99819.72
2022-10-25T20:13:30.258Z,99817.00
2022-10-25T20:15:58.248Z,99816.13
2022-10-25T20:18:28.906Z,99815.28
2022-10-25T20:20:58.524Z,99786.91
2022-10-25T20:23:26.513Z,99818.94
2022-10-25T20:25:56.728Z,99805.00
2022-10-25T20:28:24.603Z,99817.22
2022-10-25T20:30:52.631Z,99815.50
2022-10-25T20:33:21.128Z,99811.16
2022-10-25T20:35:48.945Z,99812.91
2022-10-25T20:38:16.957Z,99815.50
2022-10-25T20:40:45.359Z,99820.00
2022-10-25T20:43:14.674Z,99816.53
2022-10-25T20:45:44.031Z,99813.84
2022-10-25T20:48:11.939Z,99820.03
2022-10-25T20:50:42.443Z,99817.44
2022-10-25T20:53:11.000Z,99814.91
2022-10-25T20:55:39.028Z,99820.09
2022-10-25T20:58:06.791Z,99816.56
2022-10-25T21:00:35.943Z,99807.88
2022-10-25T21:03:03.564Z,99813.09
2022-10-25T21:05:31.588Z,99814.03
2022-10-25T21:07:59.229Z,99814.91
2022-10-25T21:10:27.263Z,99813.13
2022-10-25T21:12:54.945Z,99817.56
2022-10-25T21:15:22.636Z,99820.19
2022-10-25T21:17:51.852Z,99804.53
2022-10-25T21:20:19.755Z,99808.84
2022-10-25T21:22:47.889Z,99804.50
2022-10-25T21:25:15.811Z,99762.16
2022-10-25T21:27:43.568Z,99792.25
2022-10-25T21:30:11.887Z,99798.44
2022-10-25T21:32:39.526Z,99786.16
2022-10-25T21:35:09.386Z,99788.84
2022-10-25T21:37:37.014Z,99784.56
2022-10-25T21:40:05.293Z,99794.09
2022-10-25T21:42:32.949Z,99787.16
2022-10-25T21:45:00.775Z,99786.31
2022-10-25T21:47:28.429Z,99788.16
2022-10-25T21:49:56.842Z,99779.44
2022-10-25T21:52:25.930Z,99770.00
2022-10-25T21:54:53.645Z,99784.81
2022-10-25T21:57:21.297Z,99777.94
2022-10-25T21:59:49.086Z,99777.97
2022-10-25T22:02:16.969Z,99781.50
2022-10-25T22:04:44.980Z,99771.97
2022-10-25T22:07:12.622Z,99764.25
2022-10-25T22:09:41.678Z,99772.97
2022-10-25T22:12:09.333Z,99762.47
2022-10-25T22:14:37.090Z,99772.19
2022-10-25T22:17:04.723Z,99767.81
2022-10-25T22:19:32.511Z,99760.06
2022-10-25T22:22:00.160Z,99761.75
2022-10-25T22:24:27.934Z,99764.47
2022-10-25T22:26:56.960Z,99758.31
2022-10-25T22:29:24.701Z,99760.94
2022-10-25T22:34:26.375Z,99753.94
2022-10-25T22:36:54.104Z,99754.84
2022-10-25T22:39:21.989Z,99749.53
2022-10-25T22:41:52.677Z,99751.25
2022-10-25T22:46:54.487Z,99748.69
2022-10-25T22:49:22.838Z,99754.78
2022-10-25T22:51:50.502Z,99743.50
2022-10-25T22:54:18.300Z,99752.25
2022-10-25T22:56:46.003Z,99753.09
2022-10-25T22:59:13.815Z,99753.94
2022-10-25T23:01:42.914Z,99749.53
2022-10-25T23:04:11.109Z,99745.97
2022-10-25T23:06:39.685Z,99703.56
2022-10-25T23:09:08.978Z,99736.44
2022-10-25T23:11:37.433Z,99746.84
2022-10-25T23:14:07.355Z,99745.03
2022-10-25T23:16:35.056Z,99744.13
2022-10-25T23:19:04.452Z,99745.88
2022-10-25T23:21:32.179Z,99718.38
2022-10-25T23:24:00.425Z,99738.84
2022-10-25T23:26:29.598Z,99737.91
2022-10-25T23:28:57.674Z,99746.59
2022-10-25T23:31:25.458Z,99743.88
2022-10-25T23:33:53.845Z,99744.69
2022-10-25T23:36:23.967Z,99744.59
2022-10-25T23:38:52.135Z,99720.53
2022-10-25T23:41:20.108Z,99746.97
2022-10-25T23:43:47.926Z,99696.69
2022-10-25T23:46:15.538Z,99741.38
2022-10-25T23:48:43.538Z,99735.09
2022-10-25T23:51:12.506Z,99723.72
2022-10-25T23:53:41.701Z,99730.44
2022-10-25T23:56:10.435Z,99732.00
2022-10-25T23:58:38.293Z,99725.81
